Time;durP1;ratioP1;P1;durP2;ratioP2;P2;SDS_P1;SDS_P2;PMS_P1;PMS_P2;Temp;Humidity;BMP_temperature;BMP_pressure;BME280_temperature;BME280_humidity;BME280_pressure;Samples;Min_cycle;Max_cycle;Signal;HPM_P1;HPM_P2
2022/04/25 00:00:31;;;;;;;6.68;3.75;;;;;;;;;;5051963;28;20017;-36
2022/04/25 00:02:58;;;;;;;8.10;4.05;;;;;;;;;;5051946;28;20029;-36
2022/04/25 00:05:23;;;;;;;8.18;4.47;;;;;;;;;;5052151;28;20028;-37
2022/04/25 00:07:48;;;;;;;7.15;3.95;;;;;;;;;;5051830;28;20040;-37
2022/04/25 00:10:14;;;;;;;7.38;3.45;;;;;;;;;;5051826;28;20025;-36
2022/04/25 00:12:39;;;;;;;8.98;4.07;;;;;;;;;;5051744;28;20049;-36
2022/04/25 00:15:05;;;;;;;5.32;3.72;;;;;;;;;;5050848;28;20155;-36
2022/04/25 00:17:31;;;;;;;6.78;4.13;;;;;;;;;;5051621;28;20059;-36
2022/04/25 00:19:56;;;;;;;10.63;3.08;;;;;;;;;;5051730;28;20025;-36
2022/04/25 00:22:22;;;;;;;8.95;3.13;;;;;;;;;;5051926;28;20040;-37
2022/04/25 00:24:48;;;;;;;6.35;3.47;;;;;;;;;;5051709;28;20386;-36
2022/04/25 00:27:13;;;;;;;6.95;3.67;;;;;;;;;;5050041;28;20033;-36
2022/04/25 00:29:39;;;;;;;8.55;3.28;;;;;;;;;;5051450;28;20031;-36
2022/04/25 00:32:05;;;;;;;7.32;4.38;;;;;;;;;;5051606;28;20044;-36
2022/04/25 00:34:30;;;;;;;8.65;5.55;;;;;;;;;;5051490;28;20009;-36
2022/04/25 00:36:56;;;;;;;6.50;3.92;;;;;;;;;;5051605;28;20021;-36
2022/04/25 00:39:21;;;;;;;5.60;3.47;;;;;;;;;;5051788;28;20420;-36
2022/04/25 00:41:46;;;;;;;4.65;3.33;;;;;;;;;;5051391;28;20387;-36
2022/04/25 00:44:12;;;;;;;8.82;4.55;;;;;;;;;;5051422;28;20103;-36
2022/04/25 00:46:39;;;;;;;11.18;5.00;;;;;;;;;;5051462;28;20041;-36
2022/04/25 00:49:05;;;;;;;9.02;4.40;;;;;;;;;;5051417;28;20475;-36
2022/04/25 00:51:30;;;;;;;13.45;5.05;;;;;;;;;;5051193;28;20112;-36
2022/04/25 00:53:56;;;;;;;7.78;3.65;;;;;;;;;;5051607;28;20040;-36
2022/04/25 00:56:23;;;;;;;6.10;3.28;;;;;;;;;;5051581;28;20482;-36
2022/04/25 00:58:49;;;;;;;7.95;3.72;;;;;;;;;;5051158;28;20024;-36
2022/04/25 01:01:15;;;;;;;9.13;3.90;;;;;;;;;;5051474;28;20033;-36
2022/04/25 01:03:40;;;;;;;10.25;5.40;;;;;;;;;;5051162;28;20380;-36
2022/04/25 01:06:06;;;;;;;8.55;4.40;;;;;;;;;;5051290;28;20112;-37
2022/04/25 01:08:34;;;;;;;10.88;5.03;;;;;;;;;;5051173;28;20452;-36
2022/04/25 01:11:01;;;;;;;11.65;6.10;;;;;;;;;;5051204;28;20033;-36
2022/04/25 01:13:27;;;;;;;12.02;5.90;;;;;;;;;;5050892;28;20506;-36
2022/04/25 01:15:52;;;;;;;11.77;6.00;;;;;;;;;;5051367;28;20060;-36
2022/04/25 01:18:17;;;;;;;12.13;5.68;;;;;;;;;;5051068;28;20391;-36
2022/04/25 01:20:43;;;;;;;13.05;5.55;;;;;;;;;;5051161;28;20198;-36
2022/04/25 01:28:43;;;;;;;10.20;4.50;;;;;;;;;;5049665;28;20399;-36
2022/04/25 01:31:08;;;;;;;10.35;4.90;;;;;;;;;;5051240;28;20075;-37
2022/04/25 01:33:33;;;;;;;10.68;4.70;;;;;;;;;;5051055;28;20160;-37
2022/04/25 01:35:59;;;;;;;10.38;4.70;;;;;;;;;;5051214;28;20463;-36
2022/04/25 01:38:25;;;;;;;6.18;3.70;;;;;;;;;;5051511;28;20143;-37
2022/04/25 01:40:50;;;;;;;9.85;4.38;;;;;;;;;;5054462;28;20017;-36
2022/04/25 01:43:16;;;;;;;10.30;5.05;;;;;;;;;;5055047;28;20124;-36
2022/04/25 01:45:41;;;;;;;8.60;4.88;;;;;;;;;;5054419;28;20382;-36
2022/04/25 01:48:07;;;;;;;12.10;4.60;;;;;;;;;;5054593;28;20630;-36
2022/04/25 01:50:32;;;;;;;10.30;4.43;;;;;;;;;;5054499;28;20017;-36
2022/04/25 01:52:57;;;;;;;8.70;4.15;;;;;;;;;;5054819;28;20029;-36
2022/04/25 01:55:23;;;;;;;7.07;4.18;;;;;;;;;;5054456;28;20028;-36
2022/04/25 01:57:48;;;;;;;7.50;4.28;;;;;;;;;;5054665;28;20111;-36
2022/04/25 02:00:14;;;;;;;6.47;3.58;;;;;;;;;;5053075;28;20021;-36
2022/04/25 02:02:39;;;;;;;8.23;3.83;;;;;;;;;;5054269;28;20037;-36
2022/04/25 02:05:06;;;;;;;7.72;3.95;;;;;;;;;;5054516;28;20021;-40
2022/04/25 02:07:32;;;;;;;9.70;3.65;;;;;;;;;;5054176;28;20043;-36
2022/04/25 02:09:57;;;;;;;6.88;3.75;;;;;;;;;;5054233;28;20021;-36
2022/04/25 02:12:23;;;;;;;7.57;4.80;;;;;;;;;;5054100;28;20129;-36
2022/04/25 02:14:49;;;;;;;6.97;3.33;;;;;;;;;;5054432;28;20032;-36
2022/04/25 02:17:14;;;;;;;6.68;3.58;;;;;;;;;;5054000;28;20028;-36
2022/04/25 02:19:41;;;;;;;6.50;4.13;;;;;;;;;;5053975;28;20013;-36
2022/04/25 02:22:07;;;;;;;4.75;3.15;;;;;;;;;;5054290;28;20041;-36
2022/04/25 02:24:32;;;;;;;8.15;3.58;;;;;;;;;;5053870;28;20021;-36
2022/04/25 02:26:58;;;;;;;6.28;3.72;;;;;;;;;;5053875;28;20098;-36
2022/04/25 02:29:25;;;;;;;6.25;3.22;;;;;;;;;;5054035;28;20017;-36
2022/04/25 02:31:51;;;;;;;9.23;3.67;;;;;;;;;;5053962;28;20028;-36
2022/04/25 02:34:16;;;;;;;10.43;4.63;;;;;;;;;;5053890;28;20024;-36
2022/04/25 02:36:42;;;;;;;8.18;3.40;;;;;;;;;;5053865;28;20483;-36
2022/04/25 02:39:07;;;;;;;9.15;3.03;;;;;;;;;;5053610;28;20017;-36
2022/04/25 02:41:33;;;;;;;7.10;3.67;;;;;;;;;;5053823;28;20171;-36
2022/04/25 02:43:58;;;;;;;7.25;4.18;;;;;;;;;;5053900;28;20090;-36
2022/04/25 02:46:24;;;;;;;7.47;3.28;;;;;;;;;;5053432;28;20398;-36
2022/04/25 02:48:50;;;;;;;7.68;3.20;;;;;;;;;;5053326;28;20017;-36
2022/04/25 02:51:16;;;;;;;9.68;3.30;;;;;;;;;;5053264;28;20033;-36
2022/04/25 02:53:42;;;;;;;7.03;3.28;;;;;;;;;;5053395;28;20501;-36
2022/04/25 02:56:07;;;;;;;8.20;3.55;;;;;;;;;;5053669;28;20029;-36
2022/04/25 02:58:34;;;;;;;7.47;3.83;;;;;;;;;;5052008;28;20017;-36
2022/04/25 03:01:05;;;;;;;7.03;4.15;;;;;;;;;;5053130;28;20043;-36
2022/04/25 03:03:35;;;;;;;9.10;3.60;;;;;;;;;;5053273;28;20082;-36
2022/04/25 03:06:02;;;;;;;10.23;4.18;;;;;;;;;;5052986;28;20032;-36
2022/04/25 03:08:28;;;;;;;7.68;4.00;;;;;;;;;;5053156;28;20142;-36
2022/04/25 03:10:54;;;;;;;6.35;3.47;;;;;;;;;;5053019;28;20108;-36
2022/04/25 03:13:20;;;;;;;4.20;2.38;;;;;;;;;;5052820;28;20093;-36
2022/04/25 03:15:47;;;;;;;4.95;2.97;;;;;;;;;;5052928;28;20021;-36
2022/04/25 03:18:13;;;;;;;6.85;3.90;;;;;;;;;;5053165;28;20123;-36
2022/04/25 03:20:39;;;;;;;5.90;3.15;;;;;;;;;;5052807;28;20066;-36
2022/04/25 03:23:05;;;;;;;8.30;4.38;;;;;;;;;;5052860;28;20032;-36
2022/04/25 03:25:31;;;;;;;3.10;2.03;;;;;;;;;;5052655;28;20021;-36
2022/04/25 03:27:57;;;;;;;5.20;2.70;;;;;;;;;;5052606;28;20112;-36
2022/04/25 03:30:22;;;;;;;4.47;2.45;;;;;;;;;;5052692;28;20099;-36
2022/04/25 03:32:48;;;;;;;3.72;2.08;;;;;;;;;;5052928;28;20029;-36
2022/04/25 03:35:14;;;;;;;4.65;2.83;;;;;;;;;;5052593;28;20467;-36
2022/04/25 03:37:40;;;;;;;4.25;2.97;;;;;;;;;;5052671;28;20037;-36
2022/04/25 03:40:06;;;;;;;4.20;2.53;;;;;;;;;;5052474;28;20438;-36
2022/04/25 03:42:31;;;;;;;4.45;1.83;;;;;;;;;;5052428;28;20103;-36
2022/04/25 03:44:57;;;;;;;3.33;1.67;;;;;;;;;;5052605;28;20040;-36
2022/04/25 03:47:23;;;;;;;4.50;2.58;;;;;;;;;;5052400;28;20049;-36
2022/04/25 03:49:48;;;;;;;5.90;2.67;;;;;;;;;;5052391;28;20028;-36
2022/04/25 03:52:14;;;;;;;6.00;2.20;;;;;;;;;;5052339;28;20025;-36
2022/04/25 03:57:23;;;;;;;4.82;2.83;;;;;;;;;;5052232;28;20131;-36
2022/04/25 03:59:49;;;;;;;4.38;2.60;;;;;;;;;;5052111;28;20029;-36
2022/04/25 04:02:14;;;;;;;5.38;2.30;;;;;;;;;;5051466;28;20403;-36
2022/04/25 04:04:40;;;;;;;5.95;3.08;;;;;;;;;;5051888;28;20021;-36
2022/04/25 04:07:06;;;;;;;4.90;3.00;;;;;;;;;;5052174;28;20045;-37
2022/04/25 04:09:47;;;;;;;4.43;2.58;;;;;;;;;;5051989;28;20024;-36
2022/04/25 04:12:17;;;;;;;6.93;2.35;;;;;;;;;;5051874;28;20044;-36
2022/04/25 04:14:42;;;;;;;3.58;2.08;;;;;;;;;;5052150;28;20056;-37
2022/04/25 04:17:08;;;;;;;4.25;2.38;;;;;;;;;;5051874;28;20056;-36
2022/04/25 04:19:35;;;;;;;6.40;2.88;;;;;;;;;;5052029;28;20017;-36
2022/04/25 04:22:01;;;;;;;4.78;1.92;;;;;;;;;;5052098;28;20025;-36
2022/04/25 04:24:27;;;;;;;3.85;2.55;;;;;;;;;;5051624;28;20166;-36
2022/04/25 04:26:53;;;;;;;4.63;2.42;;;;;;;;;;5051806;28;20038;-36
2022/04/25 04:29:18;;;;;;;5.60;2.58;;;;;;;;;;5051672;28;20024;-36
2022/04/25 04:31:46;;;;;;;4.57;2.35;;;;;;;;;;5051428;28;20183;-36
2022/04/25 04:34:11;;;;;;;4.95;2.65;;;;;;;;;;5051608;28;20021;-36
2022/04/25 04:36:37;;;;;;;3.85;2.45;;;;;;;;;;5051445;28;20025;-36
2022/04/25 04:39:02;;;;;;;3.25;2.13;;;;;;;;;;5051622;28;20486;-36
2022/04/25 04:41:28;;;;;;;5.22;2.50;;;;;;;;;;5050518;28;20111;-39
2022/04/25 04:43:57;;;;;;;3.80;2.35;;;;;;;;;;5051333;28;20490;-36
2022/04/25 04:46:26;;;;;;;5.70;2.67;;;;;;;;;;5051324;28;20395;-36
2022/04/25 04:48:51;;;;;;;6.07;2.60;;;;;;;;;;5051480;28;20017;-36
2022/04/25 04:51:17;;;;;;;8.02;3.88;;;;;;;;;;5051354;28;20394;-36
2022/04/25 04:53:42;;;;;;;5.57;2.97;;;;;;;;;;5051115;28;20067;-36
2022/04/25 04:56:10;;;;;;;4.07;2.17;;;;;;;;;;5049993;28;20025;-36
2022/04/25 04:58:36;;;;;;;5.07;2.42;;;;;;;;;;5051224;28;20494;-36
2022/04/25 05:01:01;;;;;;;6.43;2.42;;;;;;;;;;5051092;28;20035;-36
2022/04/25 05:03:27;;;;;;;7.07;4.47;;;;;;;;;;5051294;28;20487;-36
2022/04/25 05:05:53;;;;;;;5.55;3.15;;;;;;;;;;5051064;28;20032;-36
2022/04/25 05:08:19;;;;;;;6.38;3.22;;;;;;;;;;5051107;28;20426;-36
2022/04/25 05:10:45;;;;;;;6.55;3.33;;;;;;;;;;5051021;28;20036;-37
2022/04/25 05:13:15;;;;;;;7.50;3.25;;;;;;;;;;5051225;28;20049;-36
2022/04/25 05:15:42;;;;;;;4.60;2.53;;;;;;;;;;5055153;28;20104;-36
2022/04/25 05:18:08;;;;;;;6.10;3.30;;;;;;;;;;5055285;28;20116;-36
2022/04/25 05:20:33;;;;;;;7.38;2.42;;;;;;;;;;5055356;28;20056;-36
2022/04/25 05:23:02;;;;;;;5.43;2.72;;;;;;;;;;5055074;28;20060;-36
2022/04/25 05:25:28;;;;;;;8.30;2.22;;;;;;;;;;5055569;28;20056;-36
2022/04/25 05:27:57;;;;;;;8.77;3.13;;;;;;;;;;5054980;28;20037;-36
2022/04/25 05:30:24;;;;;;;4.28;2.38;;;;;;;;;;5054863;28;20036;-36
2022/04/25 05:32:54;;;;;;;4.00;2.35;;;;;;;;;;5054937;28;20143;-37
2022/04/25 05:35:21;;;;;;;6.72;3.20;;;;;;;;;;5053609;28;20041;-36
2022/04/25 05:37:47;;;;;;;4.22;2.65;;;;;;;;;;5054720;28;20100;-36
2022/04/25 05:40:19;;;;;;;4.90;2.38;;;;;;;;;;5054826;28;20108;-36
2022/04/25 05:42:45;;;;;;;6.15;2.97;;;;;;;;;;5054624;28;20471;-37
2022/04/25 05:45:12;;;;;;;5.28;2.72;;;;;;;;;;5053818;28;20021;-36
2022/04/25 05:47:38;;;;;;;5.75;2.85;;;;;;;;;;5054565;28;20461;-38
2022/04/25 05:52:51;;;;;;;5.45;3.10;;;;;;;;;;5054530;28;20438;-36
2022/04/25 05:55:17;;;;;;;3.97;2.30;;;;;;;;;;5054818;28;20370;-36
2022/04/25 05:57:43;;;;;;;6.22;2.83;;;;;;;;;;5054400;28;20032;-36
2022/04/25 06:00:10;;;;;;;3.92;2.47;;;;;;;;;;5054705;28;20033;-36
2022/04/25 06:02:39;;;;;;;8.13;3.63;;;;;;;;;;5054653;28;20127;-36
2022/04/25 06:05:05;;;;;;;5.72;2.95;;;;;;;;;;5054339;28;20077;-36
2022/04/25 06:07:32;;;;;;;4.28;2.65;;;;;;;;;;5054221;28;20041;-37
2022/04/25 06:09:58;;;;;;;5.05;2.58;;;;;;;;;;5054237;28;20024;-36
2022/04/25 06:12:24;;;;;;;9.65;2.42;;;;;;;;;;5053893;28;20053;-36
2022/04/25 06:14:52;;;;;;;4.43;2.65;;;;;;;;;;5054130;28;20025;-36
2022/04/25 06:17:19;;;;;;;4.63;2.13;;;;;;;;;;5054032;28;20035;-36
2022/04/25 06:19:45;;;;;;;4.45;2.20;;;;;;;;;;5053853;28;20064;-36
2022/04/25 06:22:14;;;;;;;4.82;2.45;;;;;;;;;;5054326;28;20098;-36
2022/04/25 06:24:40;;;;;;;4.30;2.17;;;;;;;;;;5053660;28;20052;-36
2022/04/25 06:27:08;;;;;;;4.90;2.33;;;;;;;;;;5053841;28;20507;-36
2022/04/25 06:29:36;;;;;;;5.80;3.40;;;;;;;;;;5054083;28;20025;-36
2022/04/25 06:32:05;;;;;;;6.20;3.00;;;;;;;;;;5053908;28;20562;-36
2022/04/25 06:34:32;;;;;;;6.70;3.80;;;;;;;;;;5053990;28;20024;-36
2022/04/25 06:36:58;;;;;;;6.00;3.58;;;;;;;;;;5053763;28;20483;-37
2022/04/25 06:39:23;;;;;;;5.47;3.08;;;;;;;;;;5052698;28;20019;-37
2022/04/25 06:41:49;;;;;;;5.60;3.10;;;;;;;;;;5053529;28;20088;-37
2022/04/25 06:44:15;;;;;;;6.43;3.45;;;;;;;;;;5053692;28;20013;-37
2022/04/25 06:46:40;;;;;;;6.15;3.00;;;;;;;;;;5053332;28;20045;-37
2022/04/25 06:49:23;;;;;;;9.65;4.22;;;;;;;;;;5053604;28;20037;-36
2022/04/25 06:51:56;;;;;;;6.88;3.33;;;;;;;;;;5053374;28;20055;-42
2022/04/25 06:54:24;;;;;;;6.10;2.30;;;;;;;;;;5052071;28;20510;-37
2022/04/25 06:56:51;;;;;;;4.05;2.00;;;;;;;;;;5053165;28;20025;-37
2022/04/25 06:59:18;;;;;;;6.90;2.55;;;;;;;;;;5053312;28;20500;-37
2022/04/25 07:01:44;;;;;;;7.85;2.95;;;;;;;;;;5053100;28;20028;-37
2022/04/25 07:04:11;;;;;;;11.18;4.00;;;;;;;;;;5053445;28;20025;-37
2022/04/25 07:06:37;;;;;;;8.27;2.97;;;;;;;;;;5053433;28;20485;-37
2022/04/25 07:09:03;;;;;;;6.97;3.70;;;;;;;;;;5053018;28;20056;-37
2022/04/25 07:11:29;;;;;;;4.75;2.72;;;;;;;;;;5052970;28;20495;-37
2022/04/25 07:13:55;;;;;;;7.50;3.22;;;;;;;;;;5053116;28;20079;-37
2022/04/25 07:16:20;;;;;;;7.70;2.85;;;;;;;;;;5052894;28;20419;-36
2022/04/25 07:18:46;;;;;;;7.00;2.58;;;;;;;;;;5053116;28;20036;-37
2022/04/25 07:29:24;;;;;;;3.88;2.40;;;;;;;;;;5052682;28;20075;-37
2022/04/25 07:31:53;;;;;;;3.33;2.53;;;;;;;;;;5052624;28;20410;-44
2022/04/25 07:34:19;;;;;;;3.97;2.50;;;;;;;;;;5052995;28;20039;-37
2022/04/25 07:36:50;;;;;;;4.05;2.35;;;;;;;;;;5051475;28;20529;-37
2022/04/25 07:39:16;;;;;;;8.25;3.28;;;;;;;;;;5052840;28;20037;-37
2022/04/25 07:41:44;;;;;;;4.25;2.83;;;;;;;;;;5052378;28;20541;-37
2022/04/25 07:44:10;;;;;;;4.00;2.83;;;;;;;;;;5052429;28;20039;-37
2022/04/25 07:46:36;;;;;;;7.20;3.08;;;;;;;;;;5052664;28;20060;-37
2022/04/25 07:49:02;;;;;;;4.70;3.10;;;;;;;;;;5052390;28;20060;-37
2022/04/25 07:51:27;;;;;;;6.55;2.60;;;;;;;;;;5052348;28;20098;-37
2022/04/25 07:53:52;;;;;;;5.22;3.00;;;;;;;;;;5052427;28;20061;-37
2022/04/25 07:56:18;;;;;;;4.13;2.30;;;;;;;;;;5052370;28;20017;-37
2022/04/25 07:58:45;;;;;;;3.95;2.60;;;;;;;;;;5052064;28;20060;-37
2022/04/25 08:01:11;;;;;;;1.48;1.25;;;;;;;;;;5050836;28;20025;-37
2022/04/25 08:03:37;;;;;;;4.88;2.25;;;;;;;;;;5052175;28;20494;-37
2022/04/25 08:06:03;;;;;;;2.33;1.58;;;;;;;;;;5051802;28;20112;-37
2022/04/25 08:08:29;;;;;;;4.88;1.55;;;;;;;;;;5051954;28;20039;-37
2022/04/25 08:10:54;;;;;;;4.07;1.48;;;;;;;;;;5052196;28;20021;-37
2022/04/25 08:18:49;;;;;;;7.88;2.30;;;;;;;;;;5050697;28;20033;-37
2022/04/25 08:21:15;;;;;;;1.92;1.17;;;;;;;;;;5051731;28;20025;-37
2022/04/25 08:23:41;;;;;;;1.13;0.98;;;;;;;;;;5051754;28;20636;-37
2022/04/25 08:26:06;;;;;;;2.25;1.80;;;;;;;;;;5050408;28;20086;-37
2022/04/25 08:28:32;;;;;;;2.85;1.80;;;;;;;;;;5051565;28;20541;-37
2022/04/25 08:30:58;;;;;;;2.67;1.48;;;;;;;;;;5051646;28;20016;-37
2022/04/25 08:33:23;;;;;;;3.30;2.22;;;;;;;;;;5051566;28;20441;-38
2022/04/25 08:35:49;;;;;;;1.88;1.63;;;;;;;;;;5051485;28;20037;-37
2022/04/25 08:38:15;;;;;;;3.30;1.40;;;;;;;;;;5051536;28;20081;-37
2022/04/25 08:40:41;;;;;;;2.00;1.48;;;;;;;;;;5051337;28;20041;-37
2022/04/25 08:43:09;;;;;;;1.63;1.45;;;;;;;;;;5051555;28;20025;-37
2022/04/25 08:45:37;;;;;;;6.35;1.65;;;;;;;;;;5051821;28;20016;-37
2022/04/25 08:48:03;;;;;;;2.85;1.40;;;;;;;;;;5051217;28;20116;-37
2022/04/25 08:50:29;;;;;;;1.27;1.15;;;;;;;;;;5051402;28;20013;-37
2022/04/25 08:52:56;;;;;;;1.85;1.30;;;;;;;;;;5051436;28;20676;-37
2022/04/25 08:55:22;;;;;;;1.35;1.25;;;;;;;;;;5051317;28;20013;-38
2022/04/25 08:57:48;;;;;;;1.75;0.90;;;;;;;;;;5051283;28;20029;-37
2022/04/25 09:00:15;;;;;;;5.03;1.75;;;;;;;;;;5051461;28;20025;-37
2022/04/25 09:02:44;;;;;;;2.05;1.20;;;;;;;;;;5051097;28;20048;-37
2022/04/25 09:05:10;;;;;;;1.73;1.35;;;;;;;;;;5051484;28;20028;-37
2022/04/25 09:07:37;;;;;;;1.98;1.13;;;;;;;;;;5051169;28;20045;-37
2022/04/25 09:10:10;;;;;;;1.42;1.27;;;;;;;;;;5051309;28;20103;-37
2022/04/25 09:12:36;;;;;;;2.00;1.38;;;;;;;;;;5050979;28;20059;-37
2022/04/25 09:15:03;;;;;;;1.65;1.17;;;;;;;;;;5051121;28;20035;-37
2022/04/25 09:17:29;;;;;;;1.90;1.38;;;;;;;;;;5051108;28;20123;-37
2022/04/25 09:19:55;;;;;;;1.20;1.10;;;;;;;;;;5051037;28;20092;-36
2022/04/25 09:22:31;;;;;;;3.58;1.63;;;;;;;;;;5051333;28;20029;-37
2022/04/25 09:25:03;;;;;;;1.90;1.20;;;;;;;;;;5050922;28;20407;-37
2022/04/25 09:27:28;;;;;;;1.45;1.35;;;;;;;;;;5051205;28;20114;-37
2022/04/25 09:29:54;;;;;;;1.92;1.27;;;;;;;;;;5050869;28;20437;-37
2022/04/25 09:32:31;;;;;;;2.05;1.25;;;;;;;;;;5051008;28;20037;-37
2022/04/25 09:35:05;;;;;;;1.15;0.95;;;;;;;;;;5050955;28;20029;-36
2022/04/25 09:37:41;;;;;;;1.58;0.95;;;;;;;;;;5050915;28;20029;-37
2022/04/25 09:40:08;;;;;;;1.25;1.05;;;;;;;;;;5050952;28;20106;-37
2022/04/25 09:42:33;;;;;;;2.50;1.00;;;;;;;;;;5050981;28;20741;-37
2022/04/25 09:45:00;;;;;;;4.80;1.20;;;;;;;;;;5049497;28;20039;-36
2022/04/25 09:47:37;;;;;;;1.58;1.15;;;;;;;;;;5050874;28;20064;-37
2022/04/25 09:50:17;;;;;;;4.88;1.10;;;;;;;;;;5051064;28;20029;-37
2022/04/25 09:52:53;;;;;;;1.67;1.38;;;;;;;;;;5050649;28;20471;-37
2022/04/25 09:55:20;;;;;;;1.10;1.00;;;;;;;;;;5050842;28;20112;-37
2022/04/25 09:57:48;;;;;;;1.65;1.00;;;;;;;;;;5050732;28;20494;-37
2022/04/25 10:00:34;;;;;;;1.08;0.80;;;;;;;;;;5052338;28;20075;-36
2022/04/25 10:03:00;;;;;;;2.97;1.25;;;;;;;;;;5054356;28;20103;-37
2022/04/25 10:06:02;;;;;;;1.20;1.10;;;;;;;;;;5054379;28;20481;-37
2022/04/25 10:08:28;;;;;;;3.03;1.05;;;;;;;;;;5071834;28;20045;-37
2022/04/25 10:10:56;;;;;;;2.40;1.02;;;;;;;;;;5056757;28;20043;-37
2022/04/25 10:13:22;;;;;;;1.30;1.20;;;;;;;;;;5054020;28;20056;-37
2022/04/25 10:15:48;;;;;;;1.17;1.08;;;;;;;;;;5054132;28;20090;-37
2022/04/25 10:18:14;;;;;;;1.13;1.02;;;;;;;;;;5054054;28;20032;-37
2022/04/25 10:20:41;;;;;;;1.10;1.00;;;;;;;;;;5054090;28;20025;-37
2022/04/25 10:23:09;;;;;;;2.25;1.23;;;;;;;;;;5054116;28;20068;-36
2022/04/25 10:25:38;;;;;;;1.00;0.90;;;;;;;;;;5053939;28;20028;-37
2022/04/25 10:28:09;;;;;;;3.45;1.45;;;;;;;;;;5054027;28;20036;-37
2022/04/25 10:30:35;;;;;;;2.58;1.08;;;;;;;;;;5054151;28;20055;-37
2022/04/25 10:33:22;;;;;;;1.58;1.48;;;;;;;;;;5052557;28;20029;-37
2022/04/25 10:35:50;;;;;;;4.18;0.90;;;;;;;;;;5053653;28;20031;-37
2022/04/25 10:44:22;;;;;;;2.00;1.20;;;;;;;;;;5053723;28;20032;-37
2022/04/25 10:47:03;;;;;;;3.47;2.25;;;;;;;;;;5053428;28;20039;-36
2022/04/25 10:49:33;;;;;;;1.40;0.95;;;;;;;;;;5053461;28;20037;-37
2022/04/25 10:51:59;;;;;;;1.92;1.15;;;;;;;;;;5053424;28;20044;-37
2022/04/25 10:54:27;;;;;;;1.20;1.10;;;;;;;;;;5053524;28;20064;-37
2022/04/25 10:57:08;;;;;;;1.70;1.58;;;;;;;;;;5053265;28;20017;-37
2022/04/25 10:59:34;;;;;;;1.38;1.17;;;;;;;;;;5053696;28;20029;-37
2022/04/25 11:01:59;;;;;;;2.05;1.30;;;;;;;;;;5053278;28;20143;-37
2022/04/25 11:04:26;;;;;;;1.42;1.15;;;;;;;;;;5053573;28;20036;-37
2022/04/25 11:07:11;;;;;;;6.10;1.67;;;;;;;;;;5053139;28;20032;-37
2022/04/25 11:09:40;;;;;;;1.00;0.85;;;;;;;;;;5053205;28;20412;-37
2022/04/25 11:12:05;;;;;;;3.05;1.17;;;;;;;;;;5052704;28;20065;-37
2022/04/25 11:14:31;;;;;;;1.40;1.00;;;;;;;;;;5053134;28;20458;-37
2022/04/25 11:17:08;;;;;;;1.17;1.05;;;;;;;;;;5052946;28;20017;-37
2022/04/25 11:19:45;;;;;;;2.30;1.30;;;;;;;;;;5052990;28;20095;-37
2022/04/25 11:22:31;;;;;;;1.08;0.98;;;;;;;;;;5052955;28;20032;-37
2022/04/25 11:24:57;;;;;;;2.60;1.58;;;;;;;;;;5052686;28;20454;-37
2022/04/25 11:27:25;;;;;;;1.05;0.80;;;;;;;;;;5052727;28;20116;-37
2022/04/25 11:30:10;;;;;;;3.15;2.22;;;;;;;;;;5052729;28;20050;-36
2022/04/25 11:32:37;;;;;;;2.70;1.85;;;;;;;;;;5052698;28;20064;-37
2022/04/25 11:35:04;;;;;;;2.45;1.35;;;;;;;;;;5052667;28;20044;-37
2022/04/25 11:37:31;;;;;;;4.03;1.10;;;;;;;;;;5052923;28;20090;-37
2022/04/25 11:40:02;;;;;;;2.28;1.20;;;;;;;;;;5052388;28;20020;-36
2022/04/25 11:42:29;;;;;;;3.45;1.20;;;;;;;;;;5052635;28;20087;-37
2022/04/25 11:44:55;;;;;;;1.20;1.10;;;;;;;;;;5052423;28;20021;-37
2022/04/25 11:47:22;;;;;;;2.50;1.10;;;;;;;;;;5051148;28;20048;-36
2022/04/25 11:49:54;;;;;;;1.02;0.80;;;;;;;;;;5052472;28;20021;-37
2022/04/25 11:52:21;;;;;;;2.22;1.02;;;;;;;;;;5052280;28;20037;-37
2022/04/25 11:54:47;;;;;;;1.67;1.48;;;;;;;;;;5050948;28;20021;-37
2022/04/25 11:57:15;;;;;;;1.50;1.40;;;;;;;;;;5052263;28;20041;-37
2022/04/25 11:59:42;;;;;;;2.22;1.02;;;;;;;;;;5052224;28;20068;-37
2022/04/25 12:02:08;;;;;;;5.68;1.50;;;;;;;;;;5052094;28;20037;-37
2022/04/25 12:04:34;;;;;;;2.15;1.25;;;;;;;;;;5052218;28;20017;-38
2022/04/25 12:07:07;;;;;;;1.83;1.33;;;;;;;;;;5051823;28;20043;-37
2022/04/25 12:17:52;;;;;;;1.33;0.70;;;;;;;;;;5050872;28;20056;-37
2022/04/25 12:20:20;;;;;;;0.77;0.77;;;;;;;;;;5050576;28;20032;-37
2022/04/25 12:23:12;;;;;;;4.22;0.90;;;;;;;;;;5051226;28;20025;-37
2022/04/25 12:25:43;;;;;;;1.13;0.80;;;;;;;;;;5051647;28;20044;-37
2022/04/25 12:28:15;;;;;;;1.33;1.23;;;;;;;;;;5051594;28;20037;-37
2022/04/25 12:31:00;;;;;;;0.98;0.70;;;;;;;;;;5051629;28;20029;-37
2022/04/25 12:33:52;;;;;;;1.20;0.70;;;;;;;;;;5051688;28;20037;-37
2022/04/25 12:36:24;;;;;;;0.73;0.73;;;;;;;;;;5049955;28;20044;-36
2022/04/25 12:39:00;;;;;;;0.93;0.68;;;;;;;;;;5051393;28;20032;-37
2022/04/25 12:41:33;;;;;;;0.57;0.57;;;;;;;;;;5051572;28;20036;-37
2022/04/25 12:44:19;;;;;;;0.80;0.63;;;;;;;;;;5051202;28;20151;-37
2022/04/25 12:46:45;;;;;;;0.50;0.50;;;;;;;;;;5051164;28;20041;-37
2022/04/25 12:49:15;;;;;;;1.05;0.77;;;;;;;;;;5051392;28;20426;-37
2022/04/25 12:51:46;;;;;;;0.80;0.80;;;;;;;;;;5051437;28;20049;-37
2022/04/25 12:54:33;;;;;;;0.80;0.70;;;;;;;;;;5051337;28;20108;-37
2022/04/25 12:57:22;;;;;;;3.08;0.75;;;;;;;;;;5051242;28;20037;-37
2022/04/25 12:59:53;;;;;;;9.15;1.23;;;;;;;;;;5051678;28;20108;-37
2022/04/25 13:02:20;;;;;;;3.72;1.58;;;;;;;;;;5051321;28;20032;-37
2022/04/25 13:04:51;;;;;;;2.17;1.23;;;;;;;;;;5051130;28;20036;-37
2022/04/25 13:07:18;;;;;;;2.08;1.40;;;;;;;;;;5051167;28;20037;-37
2022/04/25 13:09:44;;;;;;;2.15;1.30;;;;;;;;;;5051200;28;20025;-37
2022/04/25 13:12:18;;;;;;;2.28;1.50;;;;;;;;;;5050842;28;20064;-37
2022/04/25 13:14:44;;;;;;;2.85;1.80;;;;;;;;;;5051193;28;20053;-37
2022/04/25 13:17:10;;;;;;;2.08;1.80;;;;;;;;;;5051483;28;20036;-37
2022/04/25 13:19:36;;;;;;;1.85;1.50;;;;;;;;;;5051288;28;20426;-36
2022/04/25 13:22:02;;;;;;;3.30;1.88;;;;;;;;;;5051071;28;20056;-37
2022/04/25 13:24:28;;;;;;;2.58;1.55;;;;;;;;;;5051082;28;20025;-36
2022/04/25 13:26:54;;;;;;;2.42;1.83;;;;;;;;;;5050830;28;20029;-37
2022/04/25 13:29:20;;;;;;;2.33;2.03;;;;;;;;;;5051033;28;20041;-36
2022/04/25 13:31:46;;;;;;;2.72;1.73;;;;;;;;;;5050910;28;20025;-37
2022/04/25 13:34:15;;;;;;;1.95;1.75;;;;;;;;;;5051192;28;20546;-36
2022/04/25 13:36:41;;;;;;;4.38;1.65;;;;;;;;;;5054915;28;20443;-36
2022/04/25 13:39:09;;;;;;;3.70;2.13;;;;;;;;;;5054798;28;20108;-37
2022/04/25 13:41:35;;;;;;;2.20;2.00;;;;;;;;;;5054849;28;20044;-37
2022/04/25 13:44:04;;;;;;;2.53;1.92;;;;;;;;;;5054669;28;20064;-37
2022/04/25 13:46:31;;;;;;;1.88;1.67;;;;;;;;;;5053450;28;20379;-37
2022/04/25 13:48:57;;;;;;;3.70;2.75;;;;;;;;;;5054817;28;20391;-37
2022/04/25 13:51:23;;;;;;;3.33;1.88;;;;;;;;;;5054654;28;20021;-37
2022/04/25 13:53:48;;;;;;;2.10;1.88;;;;;;;;;;5054512;28;20037;-37
2022/04/25 13:56:19;;;;;;;7.35;3.50;;;;;;;;;;5054620;28;20024;-38
2022/04/25 13:58:47;;;;;;;5.63;3.33;;;;;;;;;;5054475;28;20025;-37
2022/04/25 14:01:14;;;;;;;5.03;3.08;;;;;;;;;;5054187;28;20468;-37
2022/04/25 14:03:40;;;;;;;2.53;2.30;;;;;;;;;;5052876;28;20118;-37
2022/04/25 14:06:05;;;;;;;3.90;2.53;;;;;;;;;;5054219;28;20570;-37
2022/04/25 14:08:31;;;;;;;6.35;2.80;;;;;;;;;;5052977;28;20033;-37
2022/04/25 14:10:57;;;;;;;3.03;1.95;;;;;;;;;;5054213;28;20024;-37
2022/04/25 14:13:25;;;;;;;3.08;2.58;;;;;;;;;;5052780;28;20049;-37
2022/04/25 14:15:52;;;;;;;2.90;2.10;;;;;;;;;;5054101;28;20112;-37
2022/04/25 14:18:19;;;;;;;2.63;2.42;;;;;;;;;;5054110;28;20039;-37
2022/04/25 14:20:44;;;;;;;3.90;2.05;;;;;;;;;;5054429;28;20102;-37
2022/04/25 14:23:13;;;;;;;2.70;2.15;;;;;;;;;;5053886;28;20426;-37
2022/04/25 14:25:39;;;;;;;3.08;1.85;;;;;;;;;;5054291;28;20024;-37
2022/04/25 14:28:05;;;;;;;3.33;1.95;;;;;;;;;;5053844;28;20037;-37
2022/04/25 14:30:31;;;;;;;5.20;2.05;;;;;;;;;;5053838;28;20040;-38
2022/04/25 14:32:59;;;;;;;3.08;2.28;;;;;;;;;;5054142;28;20056;-37
2022/04/25 14:35:28;;;;;;;5.03;2.55;;;;;;;;;;5053887;28;20023;-37
2022/04/25 14:37:54;;;;;;;2.13;1.80;;;;;;;;;;5052403;28;20080;-37
2022/04/25 14:40:20;;;;;;;2.45;2.25;;;;;;;;;;5053767;28;20483;-37
2022/04/25 14:42:47;;;;;;;3.42;2.35;;;;;;;;;;5053742;28;20083;-37
2022/04/25 14:45:13;;;;;;;3.10;2.10;;;;;;;;;;5053233;28;20486;-37
2022/04/25 14:47:47;;;;;;;2.42;1.90;;;;;;;;;;5053895;28;20040;-37
2022/04/25 14:55:42;;;;;;;2.00;1.85;;;;;;;;;;5053522;28;20029;-37
2022/04/25 14:58:08;;;;;;;3.67;2.33;;;;;;;;;;5053221;28;20527;-37
2022/04/25 15:00:35;;;;;;;4.60;2.00;;;;;;;;;;5053407;28;20033;-37
2022/04/25 15:03:01;;;;;;;2.78;2.17;;;;;;;;;;5051986;28;20028;-37
2022/04/25 15:05:28;;;;;;;3.05;2.28;;;;;;;;;;5053609;28;20017;-38
2022/04/25 15:07:53;;;;;;;2.28;2.08;;;;;;;;;;5053028;28;20525;-37
2022/04/25 15:10:19;;;;;;;2.50;1.85;;;;;;;;;;5053406;28;20451;-37
2022/04/25 15:12:45;;;;;;;2.83;2.08;;;;;;;;;;5052876;28;20073;-37
2022/04/25 15:15:12;;;;;;;2.13;1.92;;;;;;;;;;5052962;28;20036;-37
2022/04/25 15:17:38;;;;;;;3.38;2.22;;;;;;;;;;5051855;28;20098;-37
2022/04/25 15:20:04;;;;;;;2.17;1.98;;;;;;;;;;5052912;28;20033;-37
2022/04/25 15:22:31;;;;;;;2.25;2.05;;;;;;;;;;5052931;28;20021;-37
2022/04/25 15:24:59;;;;;;;1.90;1.70;;;;;;;;;;5052908;28;20391;-37
2022/04/25 15:27:27;;;;;;;4.10;2.20;;;;;;;;;;5051515;28;20033;-37
2022/04/25 15:29:54;;;;;;;2.85;2.08;;;;;;;;;;5052699;28;20078;-37